sensor_id;sensor_type;location;lat;lon;timestamp;pressure;altitude;pressure_sealevel;temperature;humidity
20003;BME280;10162;41.600;23.806;2023-09-18T00:00:04;95635.50;;;14.93;100.00
20003;BME280;10162;41.600;23.806;2023-09-18T00:02:34;95633.03;;;14.98;100.00
20003;BME280;10162;41.600;23.806;2023-09-18T00:05:00;95632.38;;;15.09;100.00
20003;BME280;10162;41.600;23.806;2023-09-18T00:07:27;95627.59;;;14.93;100.00
20003;BME280;10162;41.600;23.806;2023-09-18T00:09:52;95627.91;;;14.65;100.00
20003;BME280;10162;41.600;23.806;2023-09-18T00:12:18;95629.06;;;14.76;100.00
20003;BME280;10162;41.600;23.806;2023-09-18T00:14:48;95632.53;;;14.70;100.00
20003;BME280;10162;41.600;23.806;2023-09-18T00:17:15;95631.75;;;14.69;100.00
20003;BME280;10162;41.600;23.806;2023-09-18T00:19:42;95622.06;;;14.57;100.00
20003;BME280;10162;41.600;23.806;2023-09-18T00:22:34;95633.16;;;14.65;100.00
20003;BME280;10162;41.600;23.806;2023-09-18T00:25:01;95638.25;;;14.60;100.00
20003;BME280;10162;41.600;23.806;2023-09-18T00:27:28;95637.56;;;14.84;100.00
20003;BME280;10162;41.600;23.806;2023-09-18T00:30:03;95637.31;;;14.93;100.00
20003;BME280;10162;41.600;23.806;2023-09-18T00:32:30;95630.97;;;14.56;100.00
20003;BME280;10162;41.600;23.806;2023-09-18T00:34:56;95626.91;;;14.60;100.00
20003;BME280;10162;41.600;23.806;2023-09-18T00:37:24;95641.06;;;14.65;100.00
20003;BME280;10162;41.600;23.806;2023-09-18T00:39:50;95637.25;;;14.48;100.00
20003;BME280;10162;41.600;23.806;2023-09-18T00:42:15;95636.63;;;14.53;100.00
20003;BME280;10162;41.600;23.806;2023-09-18T00:44:45;95629.50;;;14.79;100.00
20003;BME280;10162;41.600;23.806;2023-09-18T00:47:11;95645.88;;;14.81;100.00
20003;BME280;10162;41.600;23.806;2023-09-18T00:49:40;95655.06;;;14.53;100.00
20003;BME280;10162;41.600;23.806;2023-09-18T00:52:22;95642.66;;;14.73;100.00
20003;BME280;10162;41.600;23.806;2023-09-18T00:54:49;95635.78;;;14.65;100.00
20003;BME280;10162;41.600;23.806;2023-09-18T00:57:16;95642.75;;;14.33;100.00
20003;BME280;10162;41.600;23.806;2023-09-18T00:59:42;95644.75;;;14.25;100.00
20003;BME280;10162;41.600;23.806;2023-09-18T01:05:32;95652.66;;;14.44;100.00
20003;BME280;10162;41.600;23.806;2023-09-18T01:07:58;95637.47;;;14.33;100.00
20003;BME280;10162;41.600;23.806;2023-09-18T01:10:30;95646.56;;;14.24;100.00
20003;BME280;10162;41.600;23.806;2023-09-18T01:15:36;95635.28;;;14.24;100.00
20003;BME280;10162;41.600;23.806;2023-09-18T01:18:09;95633.66;;;14.03;100.00
20003;BME280;10162;41.600;23.806;2023-09-18T01:20:43;95653.47;;;14.25;100.00
20003;BME280;10162;41.600;23.806;2023-09-18T01:23:11;95642.94;;;14.25;100.00
20003;BME280;10162;41.600;23.806;2023-09-18T01:25:40;95642.13;;;14.25;100.00
20003;BME280;10162;41.600;23.806;2023-09-18T01:28:06;95642.94;;;14.45;100.00
20003;BME280;10162;41.600;23.806;2023-09-18T01:33:55;95644.56;;;14.20;100.00
20003;BME280;10162;41.600;23.806;2023-09-18T01:36:22;95640.09;;;14.33;100.00
20003;BME280;10162;41.600;23.806;2023-09-18T01:38:49;95635.28;;;14.11;100.00
20003;BME280;10162;41.600;23.806;2023-09-18T01:41:32;95632.66;;;14.04;100.00
20003;BME280;10162;41.600;23.806;2023-09-18T01:44:01;95642.34;;;14.03;100.00
20003;BME280;10162;41.600;23.806;2023-09-18T01:46:28;95642.16;;;14.12;100.00
20003;BME280;10162;41.600;23.806;2023-09-18T01:48:53;95642.53;;;14.35;100.00
20003;BME280;10162;41.600;23.806;2023-09-18T01:51:27;95634.88;;;14.07;100.00
20003;BME280;10162;41.600;23.806;2023-09-18T01:53:56;95637.91;;;14.24;100.00
20003;BME280;10162;41.600;23.806;2023-09-18T01:56:22;95636.47;;;14.21;100.00
20003;BME280;10162;41.600;23.806;2023-09-18T01:58:49;95631.03;;;13.96;100.00
20003;BME280;10162;41.600;23.806;2023-09-18T02:01:31;95632.66;;;14.11;100.00
20003;BME280;10162;41.600;23.806;2023-09-18T02:03:58;95632.47;;;13.99;100.00
20003;BME280;10162;41.600;23.806;2023-09-18T02:06:23;95619.72;;;13.83;100.00
20003;BME280;10162;41.600;23.806;2023-09-18T02:08:49;95610.00;;;13.96;100.00
20003;BME280;10162;41.600;23.806;2023-09-18T02:11:51;95617.88;;;14.03;100.00
20003;BME280;10162;41.600;23.806;2023-09-18T02:14:17;95607.38;;;13.90;100.00
20003;BME280;10162;41.600;23.806;2023-09-18T02:16:43;95623.53;;;14.26;100.00
20003;BME280;10162;41.600;23.806;2023-09-18T02:19:11;95605.91;;;14.33;100.00
20003;BME280;10162;41.600;23.806;2023-09-18T02:21:46;95609.38;;;14.27;100.00
20003;BME280;10162;41.600;23.806;2023-09-18T02:24:12;95614.88;;;13.99;100.00
20003;BME280;10162;41.600;23.806;2023-09-18T02:26:38;95628.78;;;14.13;100.00
20003;BME280;10162;41.600;23.806;2023-09-18T02:29:08;95622.72;;;14.26;100.00
20003;BME280;10162;41.600;23.806;2023-09-18T02:31:47;95629.84;;;13.99;100.00
20003;BME280;10162;41.600;23.806;2023-09-18T02:34:14;95628.41;;;13.96;100.00
20003;BME280;10162;41.600;23.806;2023-09-18T02:36:40;95626.59;;;14.10;100.00
20003;BME280;10162;41.600;23.806;2023-09-18T02:39:07;95621.72;;;13.74;100.00
20003;BME280;10162;41.600;23.806;2023-09-18T02:41:34;95630.03;;;13.71;100.00
20003;BME280;10162;41.600;23.806;2023-09-18T02:43:59;95622.75;;;13.99;100.00
20003;BME280;10162;41.600;23.806;2023-09-18T02:46:25;95633.66;;;14.16;100.00
20003;BME280;10162;41.600;23.806;2023-09-18T02:48:51;95627.59;;;13.76;100.00
20003;BME280;10162;41.600;23.806;2023-09-18T02:51:29;95632.44;;;13.73;100.00
20003;BME280;10162;41.600;23.806;2023-09-18T02:53:58;95630.22;;;14.09;100.00
20003;BME280;10162;41.600;23.806;2023-09-18T02:56:23;95592.84;;;13.94;100.00
20003;BME280;10162;41.600;23.806;2023-09-18T02:58:49;95610.81;;;13.97;100.00
20003;BME280;10162;41.600;23.806;2023-09-18T03:01:26;95630.63;;;13.80;100.00
20003;BME280;10162;41.600;23.806;2023-09-18T03:03:52;95630.22;;;13.63;100.00
20003;BME280;10162;41.600;23.806;2023-09-18T03:06:18;95637.09;;;13.64;100.00
20003;BME280;10162;41.600;23.806;2023-09-18T03:08:46;95633.25;;;13.53;100.00
20003;BME280;10162;41.600;23.806;2023-09-18T03:14:17;95637.31;;;13.69;100.00
20003;BME280;10162;41.600;23.806;2023-09-18T03:16:43;95642.13;;;13.52;100.00
20003;BME280;10162;41.600;23.806;2023-09-18T03:19:09;95654.88;;;13.49;100.00
20003;BME280;10162;41.600;23.806;2023-09-18T03:21:36;95653.44;;;13.46;100.00
20003;BME280;10162;41.600;23.806;2023-09-18T03:24:02;95656.91;;;13.67;100.00
20003;BME280;10162;41.600;23.806;2023-09-18T03:26:28;95652.09;;;13.83;100.00
20003;BME280;10162;41.600;23.806;2023-09-18T03:28:55;95650.25;;;13.71;100.00
20003;BME280;10162;41.600;23.806;2023-09-18T03:34:40;95652.03;;;13.50;100.00
20003;BME280;10162;41.600;23.806;2023-09-18T03:37:06;95650.03;;;13.59;100.00
20003;BME280;10162;41.600;23.806;2023-09-18T03:39:32;95645.78;;;13.58;100.00
20003;BME280;10162;41.600;23.806;2023-09-18T03:42:12;95655.91;;;13.61;100.00
20003;BME280;10162;41.600;23.806;2023-09-18T03:44:37;95644.16;;;13.50;100.00
20003;BME280;10162;41.600;23.806;2023-09-18T03:47:03;95633.81;;;13.29;100.00
20003;BME280;10162;41.600;23.806;2023-09-18T03:49:31;95635.47;;;13.56;100.00
20003;BME280;10162;41.600;23.806;2023-09-18T03:52:09;95633.44;;;13.52;100.00
20003;BME280;10162;41.600;23.806;2023-09-18T03:54:35;95638.88;;;13.31;100.00
20003;BME280;10162;41.600;23.806;2023-09-18T03:57:00;95644.50;;;13.21;100.00
20003;BME280;10162;41.600;23.806;2023-09-18T03:59:26;95651.16;;;13.23;100.00
20003;BME280;10162;41.600;23.806;2023-09-18T04:01:52;95648.16;;;13.40;100.00
20003;BME280;10162;41.600;23.806;2023-09-18T04:04:18;95642.06;;;13.19;100.00
20003;BME280;10162;41.600;23.806;2023-09-18T04:06:44;95650.19;;;13.44;100.00
20003;BME280;10162;41.600;23.806;2023-09-18T04:09:11;95644.78;;;13.65;100.00
20003;BME280;10162;41.600;23.806;2023-09-18T04:12:06;95644.94;;;13.31;100.00
20003;BME280;10162;41.600;23.806;2023-09-18T04:31:09;95649.63;;;13.75;100.00
20003;BME280;10162;41.600;23.806;2023-09-18T04:33:53;95652.44;;;13.47;100.00
20003;BME280;10162;41.600;23.806;2023-09-18T04:36:20;95657.50;;;13.62;100.00
20003;BME280;10162;41.600;23.806;2023-09-18T04:38:46;95647.41;;;13.85;100.00
20003;BME280;10162;41.600;23.806;2023-09-18T04:41:14;95654.69;;;14.03;100.00
20003;BME280;10162;41.600;23.806;2023-09-18T04:43:50;95640.72;;;14.16;100.00
20003;BME280;10162;41.600;23.806;2023-09-18T04:46:20;95647.00;;;14.15;100.00
20003;BME280;10162;41.600;23.806;2023-09-18T04:48:46;95638.31;;;13.88;100.00
20003;BME280;10162;41.600;23.806;2023-09-18T04:51:13;95648.66;;;13.89;100.00
20003;BME280;10162;41.600;23.806;2023-09-18T04:53:40;95645.78;;;13.84;100.00
20003;BME280;10162;41.600;23.806;2023-09-18T05:12:40;95666.38;;;15.24;100.00
20003;BME280;10162;41.600;23.806;2023-09-18T05:15:07;95663.47;;;15.32;100.00
20003;BME280;10162;41.600;23.806;2023-09-18T05:17:42;95669.28;;;15.47;100.00
20003;BME280;10162;41.600;23.806;2023-09-18T05:20:12;95678.97;;;15.60;100.00
20003;BME280;10162;41.600;23.806;2023-09-18T05:22:39;95674.41;;;15.74;100.00
20003;BME280;10162;41.600;23.806;2023-09-18T05:25:07;95671.06;;;15.60;100.00
20003;BME280;10162;41.600;23.806;2023-09-18T05:27:32;95673.88;;;15.90;100.00
20003;BME280;10162;41.600;23.806;2023-09-18T05:30:00;95662.97;;;15.86;100.00
20003;BME280;10162;41.600;23.806;2023-09-18T05:32:26;95665.03;;;16.09;100.00
20003;BME280;10162;41.600;23.806;2023-09-18T05:34:53;95673.28;;;15.94;100.00
20003;BME280;10162;41.600;23.806;2023-09-18T05:37:18;95666.13;;;15.95;100.00
20003;BME280;10162;41.600;23.806;2023-09-18T05:39:44;95677.19;;;16.10;100.00
20003;BME280;10162;41.600;23.806;2023-09-18T05:42:10;95677.19;;;16.10;100.00
20003;BME280;10162;41.600;23.806;2023-09-18T05:44:35;95676.34;;;16.16;100.00
20003;BME280;10162;41.600;23.806;2023-09-18T05:47:04;95677.25;;;16.03;100.00
20003;BME280;10162;41.600;23.806;2023-09-18T05:49:30;95684.09;;;16.11;100.00
20003;BME280;10162;41.600;23.806;2023-09-18T05:51:56;95680.75;;;16.22;100.00
20003;BME280;10162;41.600;23.806;2023-09-18T05:54:22;95687.81;;;16.28;100.00
20003;BME280;10162;41.600;23.806;2023-09-18T05:56:48;95686.31;;;16.57;100.00
20003;BME280;10162;41.600;23.806;2023-09-18T05:59:14;95682.94;;;16.50;100.00
20003;BME280;10162;41.600;23.806;2023-09-18T06:01:42;95685.19;;;16.71;100.00
20003;BME280;10162;41.600;23.806;2023-09-18T06:04:08;95682.56;;;16.89;100.00
20003;BME280;10162;41.600;23.806;2023-09-18T06:06:34;95680.72;;;16.90;100.00
20003;BME280;10162;41.600;23.806;2023-09-18T06:09:00;95686.16;;;17.13;100.00
20003;BME280;10162;41.600;23.806;2023-09-18T06:11:25;95690.97;;;17.16;100.00
20003;BME280;10162;41.600;23.806;2023-09-18T06:13:52;95678.28;;;17.25;100.00
20003;BME280;10162;41.600;23.806;2023-09-18T06:16:18;95684.09;;;17.45;100.00
20003;BME280;10162;41.600;23.806;2023-09-18T06:18:44;95684.38;;;17.55;100.00
20003;BME280;10162;41.600;23.806;2023-09-18T06:21:09;95686.69;;;17.82;100.00
20003;BME280;10162;41.600;23.806;2023-09-18T06:23:36;95689.34;;;17.82;100.00
20003;BME280;10162;41.600;23.806;2023-09-18T06:26:03;95679.19;;;17.79;100.00
20003;BME280;10162;41.600;23.806;2023-09-18T06:28:30;95687.41;;;18.00;100.00
20003;BME280;10162;41.600;23.806;2023-09-18T06:30:55;95694.13;;;18.14;100.00
20003;BME280;10162;41.600;23.806;2023-09-18T06:33:22;95688.97;;;18.31;100.00
20003;BME280;10162;41.600;23.806;2023-09-18T06:35:47;95691.50;;;18.26;100.00
20003;BME280;10162;41.600;23.806;2023-09-18T06:38:14;95674.72;;;18.44;100.00
20003;BME280;10162;41.600;23.806;2023-09-18T06:40:41;95683.63;;;17.96;100.00
20003;BME280;10162;41.600;23.806;2023-09-18T06:43:07;95680.16;;;17.96;100.00
20003;BME280;10162;41.600;23.806;2023-09-18T06:45:33;95677.75;;;18.06;100.00
20003;BME280;10162;41.600;23.806;2023-09-18T06:47:59;95678.63;;;18.65;100.00
20003;BME280;10162;41.600;23.806;2023-09-18T06:50:26;95677.69;;;18.94;100.00
20003;BME280;10162;41.600;23.806;2023-09-18T06:52:51;95667.44;;;18.74;100.00
20003;BME280;10162;41.600;23.806;2023-09-18T06:55:18;95684.09;;;19.10;100.00
20003;BME280;10162;41.600;23.806;2023-09-18T06:57:45;95675.28;;;19.32;100.00
20003;BME280;10162;41.600;23.806;2023-09-18T07:00:11;95673.16;;;19.58;100.00
20003;BME280;10162;41.600;23.806;2023-09-18T07:02:41;95675.72;;;19.53;100.00
20003;BME280;10162;41.600;23.806;2023-09-18T07:05:06;95670.94;;;19.83;100.00
20003;BME280;10162;41.600;23.806;2023-09-18T07:07:33;95683.03;;;19.91;100.00
20003;BME280;10162;41.600;23.806;2023-09-18T07:09:59;95675.81;;;20.03;100.00
20003;BME280;10162;41.600;23.806;2023-09-18T07:12:24;95677.44;;;20.04;100.00
20003;BME280;10162;41.600;23.806;2023-09-18T07:14:51;95682.03;;;20.42;100.00
20003;BME280;10162;41.600;23.806;2023-09-18T07:17:17;95675.75;;;20.48;100.00
20003;BME280;10162;41.600;23.806;2023-09-18T07:19:42;95678.16;;;20.16;100.00
20003;BME280;10162;41.600;23.806;2023-09-18T07:22:08;95680.09;;;20.20;100.00
20003;BME280;10162;41.600;23.806;2023-09-18T07:24:34;95684.75;;;20.30;100.00
20003;BME280;10162;41.600;23.806;2023-09-18T07:27:00;95681.13;;;20.03;100.00
20003;BME280;10162;41.600;23.806;2023-09-18T07:29:27;95682.19;;;19.73;100.00
20003;BME280;10162;41.600;23.806;2023-09-18T07:31:53;95676.22;;;19.66;100.00
20003;BME280;10162;41.600;23.806;2023-09-18T07:34:18;95675.47;;;19.42;100.00
20003;BME280;10162;41.600;23.806;2023-09-18T07:36:45;95674.88;;;19.24;100.00
20003;BME280;10162;41.600;23.806;2023-09-18T07:39:11;95679.53;;;19.45;100.00
20003;BME280;10162;41.600;23.806;2023-09-18T07:41:40;95688.06;;;20.54;100.00
20003;BME280;10162;41.600;23.806;2023-09-18T07:44:05;95677.63;;;21.08;100.00
20003;BME280;10162;41.600;23.806;2023-09-18T07:46:32;95680.00;;;21.04;100.00
20003;BME280;10162;41.600;23.806;2023-09-18T07:48:58;95678.31;;;21.15;100.00
20003;BME280;10162;41.600;23.806;2023-09-18T07:51:25;95668.69;;;21.14;100.00
20003;BME280;10162;41.600;23.806;2023-09-18T07:53:50;95666.03;;;21.14;100.00
20003;BME280;10162;41.600;23.806;2023-09-18T07:56:19;95667.25;;;21.71;100.00
20003;BME280;10162;41.600;23.806;2023-09-18T07:58:45;95667.19;;;21.93;100.00
20003;BME280;10162;41.600;23.806;2023-09-18T08:01:12;95670.75;;;21.50;100.00
20003;BME280;10162;41.600;23.806;2023-09-18T08:03:39;95659.28;;;21.50;100.00
20003;BME280;10162;41.600;23.806;2023-09-18T08:06:06;95668.91;;;21.77;100.00
20003;BME280;10162;41.600;23.806;2023-09-18T08:08:32;95658.38;;;21.39;100.00
20003;BME280;10162;41.600;23.806;2023-09-18T08:11:00;95658.31;;;22.09;100.00
20003;BME280;10162;41.600;23.806;2023-09-18T08:13:34;95659.66;;;22.12;97.49
20003;BME280;10162;41.600;23.806;2023-09-18T08:16:01;95652.19;;;22.09;96.17
20003;BME280;10162;41.600;23.806;2023-09-18T08:18:27;95646.84;;;22.41;97.89
20003;BME280;10162;41.600;23.806;2023-09-18T08:20:54;95649.91;;;22.59;93.26
20003;BME280;10162;41.600;23.806;2023-09-18T08:23:21;95644.00;;;22.52;93.12
20003;BME280;10162;41.600;23.806;2023-09-18T08:25:46;95636.63;;;22.70;93.52
20003;BME280;10162;41.600;23.806;2023-09-18T08:28:14;95631.59;;;22.73;94.44
20003;BME280;10162;41.600;23.806;2023-09-18T08:30:40;95634.53;;;23.24;88.57
20003;BME280;10162;41.600;23.806;2023-09-18T08:33:10;95634.81;;;22.75;93.96
20003;BME280;10162;41.600;23.806;2023-09-18T08:35:36;95625.94;;;23.12;91.21
20003;BME280;10162;41.600;23.806;2023-09-18T08:38:03;95620.06;;;23.10;91.63
20003;BME280;10162;41.600;23.806;2023-09-18T08:40:29;95619.25;;;23.09;91.66
20003;BME280;10162;41.600;23.806;2023-09-18T08:42:56;95619.28;;;23.24;90.06
20003;BME280;10162;41.600;23.806;2023-09-18T08:45:40;95629.09;;;23.86;86.22
20003;BME280;10162;41.600;23.806;2023-09-18T08:48:10;95611.97;;;23.57;86.93
20003;BME280;10162;41.600;23.806;2023-09-18T08:50:37;95606.50;;;23.21;84.50
20003;BME280;10162;41.600;23.806;2023-09-18T08:53:05;95595.19;;;23.92;83.08
20003;BME280;10162;41.600;23.806;2023-09-18T08:55:31;95601.66;;;23.13;89.51
20003;BME280;10162;41.600;23.806;2023-09-18T08:58:00;95601.31;;;24.07;86.59
20003;BME280;10162;41.600;23.806;2023-09-18T09:00:26;95603.19;;;24.07;83.34
20003;BME280;10162;41.600;23.806;2023-09-18T09:02:53;95593.31;;;23.97;82.50
20003;BME280;10162;41.600;23.806;2023-09-18T09:05:21;95603.72;;;24.14;83.76
20003;BME280;10162;41.600;23.806;2023-09-18T09:07:48;95586.34;;;23.66;83.77
20003;BME280;10162;41.600;23.806;2023-09-18T09:10:14;95592.22;;;23.83;83.92
20003;BME280;10162;41.600;23.806;2023-09-18T09:12:53;95586.59;;;24.55;80.63
20003;BME280;10162;41.600;23.806;2023-09-18T09:15:21;95583.13;;;24.09;82.14
20003;BME280;10162;41.600;23.806;2023-09-18T09:17:47;95590.91;;;24.41;80.98
20003;BME280;10162;41.600;23.806;2023-09-18T09:20:15;95595.16;;;24.57;76.70
20003;BME280;10162;41.600;23.806;2023-09-18T09:22:41;95595.38;;;24.71;71.48
20003;BME280;10162;41.600;23.806;2023-09-18T09:27:46;95591.06;;;24.90;69.00
20003;BME280;10162;41.600;23.806;2023-09-18T09:30:19;95591.09;;;24.70;71.79
20003;BME280;10162;41.600;23.806;2023-09-18T09:32:47;95593.88;;;25.19;73.36
20003;BME280;10162;41.600;23.806;2023-09-18T09:35:19;95587.38;;;24.56;72.85
20003;BME280;10162;41.600;23.806;2023-09-18T09:37:45;95585.84;;;24.29;76.39
20003;BME280;10162;41.600;23.806;2023-09-18T09:40:12;95587.16;;;24.02;73.55
20003;BME280;10162;41.600;23.806;2023-09-18T09:42:40;95583.44;;;24.03;73.50
20003;BME280;10162;41.600;23.806;2023-09-18T09:45:14;95581.72;;;24.73;70.85
20003;BME280;10162;41.600;23.806;2023-09-18T09:47:44;95575.59;;;25.80;64.64
20003;BME280;10162;41.600;23.806;2023-09-18T09:50:11;95571.84;;;26.15;63.63
20003;BME280;10162;41.600;23.806;2023-09-18T09:52:49;95570.94;;;25.96;64.30
20003;BME280;10162;41.600;23.806;2023-09-18T09:57:58;95554.44;;;24.81;67.65
20003;BME280;10162;41.600;23.806;2023-09-18T10:00:38;95564.66;;;24.63;69.03
20003;BME280;10162;41.600;23.806;2023-09-18T10:03:20;95556.41;;;24.45;69.16
20003;BME280;10162;41.600;23.806;2023-09-18T10:05:49;95551.00;;;24.65;67.36
20003;BME280;10162;41.600;23.806;2023-09-18T10:08:23;95551.44;;;25.51;64.91
20003;BME280;10162;41.600;23.806;2023-09-18T10:10:54;95547.63;;;25.63;64.00
20003;BME280;10162;41.600;23.806;2023-09-18T10:16:26;95552.28;;;24.78;65.50
20003;BME280;10162;41.600;23.806;2023-09-18T10:19:11;95551.91;;;24.25;64.67
20003;BME280;10162;41.600;23.806;2023-09-18T10:24:54;95549.44;;;24.54;66.58
20003;BME280;10162;41.600;23.806;2023-09-18T10:27:27;95536.75;;;24.85;63.63
20003;BME280;10162;41.600;23.806;2023-09-18T10:29:54;95533.13;;;25.64;60.22
20003;BME280;10162;41.600;23.806;2023-09-18T10:32:21;95527.19;;;26.06;57.47
20003;BME280;10162;41.600;23.806;2023-09-18T10:34:48;95524.50;;;26.35;58.69
20003;BME280;10162;41.600;23.806;2023-09-18T10:37:15;95523.09;;;26.90;56.71
20003;BME280;10162;41.600;23.806;2023-09-18T10:39:41;95523.53;;;25.63;57.86
20003;BME280;10162;41.600;23.806;2023-09-18T10:42:08;95509.81;;;25.25;61.66
20003;BME280;10162;41.600;23.806;2023-09-18T10:44:36;95508.66;;;24.97;63.63
20003;BME280;10162;41.600;23.806;2023-09-18T10:47:06;95515.13;;;25.30;60.95
20003;BME280;10162;41.600;23.806;2023-09-18T10:49:34;95510.97;;;25.53;59.57
20003;BME280;10162;41.600;23.806;2023-09-18T10:52:03;95497.78;;;25.28;59.63
20003;BME280;10162;41.600;23.806;2023-09-18T10:54:30;95505.25;;;25.99;59.14
20003;BME280;10162;41.600;23.806;2023-09-18T10:57:00;95503.81;;;26.11;58.09
20003;BME280;10162;41.600;23.806;2023-09-18T10:59:28;95494.31;;;26.95;54.67
20003;BME280;10162;41.600;23.806;2023-09-18T11:01:55;95498.81;;;27.19;54.48
20003;BME280;10162;41.600;23.806;2023-09-18T11:04:23;95503.69;;;27.35;53.70
20003;BME280;10162;41.600;23.806;2023-09-18T11:09:21;95495.56;;;27.03;50.73
20003;BME280;10162;41.600;23.806;2023-09-18T11:12:14;95486.78;;;26.73;50.84
20003;BME280;10162;41.600;23.806;2023-09-18T11:14:56;95494.63;;;26.70;53.76
20003;BME280;10162;41.600;23.806;2023-09-18T11:17:33;95476.78;;;27.03;52.15
20003;BME280;10162;41.600;23.806;2023-09-18T11:22:38;95485.25;;;27.66;51.93
20003;BME280;10162;41.600;23.806;2023-09-18T11:25:33;95485.91;;;27.58;50.18
20003;BME280;10162;41.600;23.806;2023-09-18T11:28:02;95479.66;;;27.44;51.61
20003;BME280;10162;41.600;23.806;2023-09-18T11:30:29;95478.59;;;27.96;48.04
20003;BME280;10162;41.600;23.806;2023-09-18T11:32:56;95472.97;;;27.92;48.13
20003;BME280;10162;41.600;23.806;2023-09-18T11:35:22;95471.38;;;27.91;48.67
20003;BME280;10162;41.600;23.806;2023-09-18T11:38:06;95467.03;;;27.63;50.84
20003;BME280;10162;41.600;23.806;2023-09-18T11:40:34;95463.03;;;27.42;48.97
20003;BME280;10162;41.600;23.806;2023-09-18T11:43:27;95449.88;;;26.65;49.26
20003;BME280;10162;41.600;23.806;2023-09-18T11:45:59;95469.47;;;27.78;48.44
20003;BME280;10162;41.600;23.806;2023-09-18T11:48:28;95461.91;;;28.26;49.83
20003;BME280;10162;41.600;23.806;2023-09-18T11:50:57;95457.25;;;27.53;46.64
20003;BME280;10162;41.600;23.806;2023-09-18T11:53:27;95456.72;;;28.16;47.09
20003;BME280;10162;41.600;23.806;2023-09-18T11:55:53;95448.56;;;28.35;47.83
20003;BME280;10162;41.600;23.806;2023-09-18T11:58:19;95437.09;;;28.43;47.85
20003;BME280;10162;41.600;23.806;2023-09-18T12:00:53;95436.88;;;27.15;48.37
20003;BME280;10162;41.600;23.806;2023-09-18T12:03:22;95432.75;;;26.43;49.28
20003;BME280;10162;41.600;23.806;2023-09-18T12:05:56;95424.44;;;27.57;47.78
20003;BME280;10162;41.600;23.806;2023-09-18T12:08:23;95434.56;;;27.92;47.63
20003;BME280;10162;41.600;23.806;2023-09-18T12:10:53;95430.94;;;28.29;47.09
20003;BME280;10162;41.600;23.806;2023-09-18T12:13:19;95428.53;;;28.14;47.97
20003;BME280;10162;41.600;23.806;2023-09-18T12:15:44;95424.41;;;28.71;47.36
20003;BME280;10162;41.600;23.806;2023-09-18T12:18:11;95427.09;;;28.71;46.68
20003;BME280;10162;41.600;23.806;2023-09-18T12:20:49;95427.25;;;26.53;47.32
20003;BME280;10162;41.600;23.806;2023-09-18T12:23:17;95427.16;;;27.70;46.90
20003;BME280;10162;41.600;23.806;2023-09-18T12:25:48;95431.44;;;28.17;45.45
20003;BME280;10162;41.600;23.806;2023-09-18T12:28:15;95432.13;;;27.44;45.63
20003;BME280;10162;41.600;23.806;2023-09-18T12:30:43;95415.56;;;28.02;45.43
20003;BME280;10162;41.600;23.806;2023-09-18T12:33:10;95418.56;;;27.54;47.12
20003;BME280;10162;41.600;23.806;2023-09-18T12:35:36;95414.63;;;27.66;48.06
20003;BME280;10162;41.600;23.806;2023-09-18T12:38:13;95403.38;;;26.94;49.51
20003;BME280;10162;41.600;23.806;2023-09-18T12:40:39;95402.25;;;26.76;50.16
20003;BME280;10162;41.600;23.806;2023-09-18T12:43:05;95410.72;;;26.83;49.88
20003;BME280;10162;41.600;23.806;2023-09-18T12:45:33;95410.38;;;27.92;45.81
20003;BME280;10162;41.600;23.806;2023-09-18T12:48:00;95406.22;;;28.82;44.76
20003;BME280;10162;41.600;23.806;2023-09-18T12:50:26;95406.53;;;28.39;44.80
20003;BME280;10162;41.600;23.806;2023-09-18T12:52:52;95404.53;;;27.58;44.27
20003;BME280;10162;41.600;23.806;2023-09-18T12:55:26;95395.47;;;27.02;48.20
20003;BME280;10162;41.600;23.806;2023-09-18T12:57:53;95395.53;;;26.97;46.81
20003;BME280;10162;41.600;23.806;2023-09-18T13:00:22;95393.88;;;28.12;44.17
20003;BME280;10162;41.600;23.806;2023-09-18T13:02:49;95391.59;;;27.27;43.59
20003;BME280;10162;41.600;23.806;2023-09-18T13:05:21;95392.81;;;28.13;43.39
20003;BME280;10162;41.600;23.806;2023-09-18T13:07:54;95392.97;;;27.25;44.77
20003;BME280;10162;41.600;23.806;2023-09-18T13:10:21;95397.38;;;27.53;45.18
20003;BME280;10162;41.600;23.806;2023-09-18T13:12:52;95396.38;;;28.99;39.79
20003;BME280;10162;41.600;23.806;2023-09-18T13:17:54;95390.31;;;28.30;39.39
20003;BME280;10162;41.600;23.806;2023-09-18T13:20:25;95385.94;;;29.20;40.55
20003;BME280;10162;41.600;23.806;2023-09-18T13:22:57;95381.34;;;29.21;40.91
20003;BME280;10162;41.600;23.806;2023-09-18T13:25:28;95386.78;;;29.74;40.74
20003;BME280;10162;41.600;23.806;2023-09-18T13:27:55;95367.09;;;29.42;39.81
20003;BME280;10162;41.600;23.806;2023-09-18T13:30:21;95378.66;;;29.96;40.53
20003;BME280;10162;41.600;23.806;2023-09-18T13:33:01;95359.53;;;28.72;40.82
20003;BME280;10162;41.600;23.806;2023-09-18T13:35:28;95363.50;;;27.98;42.19
20003;BME280;10162;41.600;23.806;2023-09-18T13:37:53;95373.88;;;28.18;42.49
20003;BME280;10162;41.600;23.806;2023-09-18T13:40:20;95363.34;;;29.52;39.82
20003;BME280;10162;41.600;23.806;2023-09-18T13:42:47;95360.41;;;29.40;39.06
20003;BME280;10162;41.600;23.806;2023-09-18T13:45:15;95354.47;;;29.07;38.51
20003;BME280;10162;41.600;23.806;2023-09-18T13:47:44;95355.25;;;28.85;37.72
20003;BME280;10162;41.600;23.806;2023-09-18T13:50:11;95352.81;;;29.20;39.42
20003;BME280;10162;41.600;23.806;2023-09-18T13:52:38;95359.22;;;29.77;38.31
20003;BME280;10162;41.600;23.806;2023-09-18T13:55:05;95362.69;;;29.46;38.41
20003;BME280;10162;41.600;23.806;2023-09-18T13:57:32;95362.50;;;29.74;36.88
20003;BME280;10162;41.600;23.806;2023-09-18T13:59:59;95365.16;;;28.76;39.17